Terminal Aerodrome Forecast
Issued by NWS Twin Cities, MN

Home | Current Version | Previous Version | Text Only | Print | Product List | Glossary Off
Versions: 1 2 3 4 5 6 7 8 9 10 11 12 13 14

812
FTUS43 KMPX 131739
TAFEAU
TAF
KEAU 131739Z 1318/1418 14004KT P6SM SCT050 BKN090
     FM140000 14004KT P6SM -SHRA SCT040 BKN080
     FM140900 13004KT 6SM -SHRA BR SCT020 OVC040
     FM141400 12005KT 5SM BR OVC015=

USA.gov is the U.S. government's official web portal to all federal, state and local government web resources and services.